Time;durP1;ratioP1;P1;durP2;ratioP2;P2;SDS_P1;SDS_P2;PMS_P1;PMS_P2;Temp;Humidity;BMP_temperature;BMP_pressure;BME280_temperature;BME280_humidity;BME280_pressure;Samples;Min_cycle;Max_cycle;Signal;HPM_P1;HPM_P2
2024/03/20 00:02:38;;;;;;;32.13;16.17;;;3.00;99.90;;;;;;5079493;28;20221;-68
2024/03/20 00:05:25;;;;;;;33.57;15.97;;;3.00;99.90;;;;;;5066747;28;20216;-68
2024/03/20 00:08:11;;;;;;;29.97;15.53;;;3.00;99.90;;;;;;5079964;28;20599;-68
2024/03/20 00:10:57;;;;;;;32.00;16.17;;;2.90;99.90;;;;;;5079537;28;20219;-68
2024/03/20 00:13:44;;;;;;;36.70;15.63;;;3.00;99.90;;;;;;5079361;28;20650;-68
2024/03/20 00:16:31;;;;;;;34.53;16.43;;;3.00;99.90;;;;;;5066058;28;20193;-68
2024/03/20 00:19:18;;;;;;;31.57;15.93;;;2.90;99.90;;;;;;5079212;28;20232;-68
2024/03/20 00:22:04;;;;;;;35.10;15.90;;;2.90;99.90;;;;;;5067311;28;20213;-68
2024/03/20 00:24:50;;;;;;;36.80;16.23;;;2.80;99.90;;;;;;5079165;28;20190;-68
2024/03/20 00:27:37;;;;;;;32.50;15.47;;;2.70;99.90;;;;;;5065935;28;20208;-68
2024/03/20 00:30:23;;;;;;;35.17;16.37;;;2.70;99.90;;;;;;5079276;28;20197;-68
2024/03/20 00:33:09;;;;;;;30.13;15.53;;;2.70;99.90;;;;;;5079078;28;20189;-68
2024/03/20 00:35:56;;;;;;;33.90;16.37;;;2.70;99.90;;;;;;5079598;28;20313;-68
2024/03/20 00:38:42;;;;;;;32.50;15.50;;;2.60;99.90;;;;;;5078511;28;20197;-68
2024/03/20 00:41:28;;;;;;;31.93;14.97;;;2.60;99.90;;;;;;5078865;28;20224;-68
2024/03/20 00:44:15;;;;;;;31.47;15.73;;;2.60;99.90;;;;;;5064953;28;20549;-68
2024/03/20 00:47:02;;;;;;;32.73;16.07;;;2.60;99.90;;;;;;5078232;28;20293;-68
2024/03/20 00:49:48;;;;;;;32.03;15.13;;;2.60;99.90;;;;;;5077478;28;20580;-68
2024/03/20 00:52:34;;;;;;;34.30;16.10;;;2.60;99.90;;;;;;5078447;28;20203;-68
2024/03/20 00:55:21;;;;;;;34.93;15.87;;;2.60;99.90;;;;;;5076887;28;20565;-68
2024/03/20 00:58:11;;;;;;;31.80;15.47;;;2.60;99.90;;;;;;5078124;28;20190;-68
2024/03/20 01:00:57;;;;;;;36.37;15.13;;;2.50;99.90;;;;;;5077821;28;20194;-68
2024/03/20 01:03:44;;;;;;;33.27;15.00;;;2.50;99.90;;;;;;5077463;28;20218;-68
2024/03/20 01:06:30;;;;;;;26.97;14.30;;;2.50;99.90;;;;;;5078398;28;20182;-68
2024/03/20 01:09:17;;;;;;;33.00;15.60;;;2.40;99.90;;;;;;5077198;28;20193;-68
2024/03/20 01:12:03;;;;;;;29.37;14.70;;;2.40;99.90;;;;;;5064567;28;20190;-68
2024/03/20 01:14:49;;;;;;;30.40;15.00;;;2.40;99.90;;;;;;5078249;28;20287;-68
2024/03/20 01:17:36;;;;;;;26.90;14.20;;;2.40;99.90;;;;;;5063376;28;20193;-68
2024/03/20 01:20:22;;;;;;;29.03;14.70;;;2.30;99.90;;;;;;5077442;28;20212;-68
2024/03/20 01:23:09;;;;;;;26.87;14.13;;;2.40;99.90;;;;;;5078395;28;20567;-68
2024/03/20 01:25:55;;;;;;;24.77;13.40;;;2.30;99.90;;;;;;5063484;28;20215;-67
2024/03/20 01:28:42;;;;;;;27.33;14.07;;;2.20;99.90;;;;;;5077377;28;20186;-67
2024/03/20 01:31:28;;;;;;;27.17;13.93;;;2.30;99.90;;;;;;5063343;28;20196;-67
2024/03/20 01:34:14;;;;;;;30.33;14.03;;;2.30;99.90;;;;;;5076728;28;20575;-67
2024/03/20 01:37:01;;;;;;;27.30;13.60;;;2.30;99.90;;;;;;5076453;28;20225;-67
2024/03/20 01:39:47;;;;;;;27.07;14.43;;;2.40;99.90;;;;;;5077140;28;20193;-68
2024/03/20 01:42:34;;;;;;;26.87;13.43;;;2.30;99.90;;;;;;5076671;28;20244;-67
2024/03/20 01:45:21;;;;;;;29.73;13.97;;;2.20;99.90;;;;;;5077259;28;20190;-67
2024/03/20 01:48:08;;;;;;;27.50;13.63;;;2.20;99.90;;;;;;5077605;28;20193;-67
2024/03/20 01:50:54;;;;;;;29.07;14.27;;;2.10;99.90;;;;;;5076795;28;20196;-68
2024/03/20 01:53:41;;;;;;;26.90;14.53;;;2.10;99.90;;;;;;5076345;28;20200;-68
2024/03/20 01:56:27;;;;;;;29.33;14.93;;;2.10;99.90;;;;;;5062866;28;20199;-68
2024/03/20 01:59:14;;;;;;;31.00;14.47;;;2.10;99.90;;;;;;5063085;28;20200;-68
2024/03/20 02:02:00;;;;;;;26.97;14.33;;;2.00;99.90;;;;;;5076294;28;20595;-68
2024/03/20 02:04:46;;;;;;;31.50;15.13;;;2.00;99.90;;;;;;5075968;28;20226;-68
2024/03/20 02:07:33;;;;;;;28.77;14.47;;;1.90;99.90;;;;;;5076776;28;20207;-67
2024/03/20 02:10:19;;;;;;;33.83;16.10;;;1.80;99.90;;;;;;5076103;28;20653;-67
2024/03/20 02:13:07;;;;;;;31.90;15.57;;;1.70;99.90;;;;;;5076095;28;20529;-68
2024/03/20 02:15:53;;;;;;;31.60;16.50;;;1.70;99.90;;;;;;5063387;28;20197;-67
2024/03/20 02:18:40;;;;;;;33.97;16.33;;;1.60;99.90;;;;;;5075802;28;20186;-67
2024/03/20 02:21:26;;;;;;;32.83;16.13;;;1.60;99.90;;;;;;5076582;28;20220;-67
2024/03/20 02:24:12;;;;;;;32.53;15.87;;;1.60;99.90;;;;;;5076524;28;20193;-67
2024/03/20 02:26:58;;;;;;;31.30;14.83;;;1.60;99.90;;;;;;5075865;28;20653;-67
2024/03/20 02:29:45;;;;;;;31.53;15.47;;;1.50;99.90;;;;;;5076524;28;20197;-67
2024/03/20 02:32:32;;;;;;;32.80;16.10;;;1.50;99.90;;;;;;5076356;28;20194;-67
2024/03/20 02:35:18;;;;;;;34.80;15.67;;;1.50;99.90;;;;;;5076253;28;20209;-67
2024/03/20 02:38:05;;;;;;;30.03;15.33;;;1.50;99.90;;;;;;5076594;28;20198;-68
2024/03/20 02:40:52;;;;;;;30.17;14.87;;;1.50;99.90;;;;;;5062204;28;20186;-67
2024/03/20 02:43:39;;;;;;;33.43;16.03;;;1.40;99.90;;;;;;5075771;28;20205;-68
2024/03/20 02:46:26;;;;;;;32.37;15.30;;;1.40;99.90;;;;;;5076267;28;20204;-68
2024/03/20 02:49:12;;;;;;;27.90;14.40;;;1.40;99.90;;;;;;5062627;28;20214;-68
2024/03/20 02:51:58;;;;;;;29.40;14.90;;;1.40;99.90;;;;;;5076055;28;20193;-68
2024/03/20 02:54:45;;;;;;;32.97;15.27;;;1.40;99.90;;;;;;5076216;28;20193;-67
2024/03/20 02:57:31;;;;;;;33.97;15.23;;;1.40;99.90;;;;;;5063050;28;20207;-68
2024/03/20 03:00:17;;;;;;;33.70;15.87;;;1.30;99.90;;;;;;5076018;28;20192;-67
2024/03/20 03:03:04;;;;;;;29.97;15.07;;;1.30;99.90;;;;;;5075576;28;20217;-68
2024/03/20 03:05:50;;;;;;;28.53;14.83;;;1.20;99.90;;;;;;5076631;28;20558;-68
2024/03/20 03:08:36;;;;;;;32.03;15.67;;;1.20;99.90;;;;;;5075485;28;20204;-68
2024/03/20 03:11:23;;;;;;;29.23;14.90;;;1.20;99.90;;;;;;5062308;28;20189;-69
2024/03/20 03:14:09;;;;;;;30.77;15.50;;;1.10;99.90;;;;;;5075300;28;20668;-69
2024/03/20 03:16:56;;;;;;;27.57;15.03;;;1.10;99.90;;;;;;5075840;28;20200;-67
2024/03/20 03:19:42;;;;;;;29.63;14.50;;;1.10;99.90;;;;;;5075480;28;20209;-67
2024/03/20 03:22:28;;;;;;;31.27;14.83;;;1.10;99.90;;;;;;5066239;28;20217;-68
2024/03/20 03:25:14;;;;;;;27.77;14.67;;;1.10;99.90;;;;;;5066523;28;20632;-68
2024/03/20 03:28:01;;;;;;;28.93;14.03;;;1.00;99.90;;;;;;5053125;28;20194;-68
2024/03/20 03:30:47;;;;;;;28.40;13.87;;;1.00;99.90;;;;;;5079576;28;20194;-68
2024/03/20 03:33:34;;;;;;;29.93;14.60;;;1.00;99.90;;;;;;5079715;28;20724;-68
2024/03/20 03:36:20;;;;;;;29.07;13.07;;;0.90;99.90;;;;;;5066072;28;20629;-67
2024/03/20 03:39:07;;;;;;;27.37;13.37;;;1.00;99.90;;;;;;5065794;28;20201;-68
2024/03/20 03:41:53;;;;;;;28.17;12.57;;;1.00;99.90;;;;;;5079875;28;20253;-68
2024/03/20 03:44:39;;;;;;;28.10;12.67;;;1.10;99.90;;;;;;5080613;28;20655;-68
2024/03/20 03:47:32;;;;;;;26.50;13.10;;;1.10;99.90;;;;;;5080485;28;20186;-68
2024/03/20 03:50:18;;;;;;;27.63;13.23;;;1.10;99.90;;;;;;5079726;28;20211;-68
2024/03/20 03:53:04;;;;;;;25.90;12.57;;;1.10;99.90;;;;;;5079276;28;20185;-68
2024/03/20 03:55:51;;;;;;;24.97;12.33;;;1.10;99.90;;;;;;5079517;28;20630;-68
2024/03/20 03:58:37;;;;;;;28.67;12.40;;;1.10;99.90;;;;;;5079740;28;20218;-67
2024/03/20 04:01:23;;;;;;;24.80;12.23;;;1.10;99.90;;;;;;5079626;28;20208;-68
2024/03/20 04:04:10;;;;;;;25.43;12.83;;;1.10;99.90;;;;;;5079568;28;20216;-68
2024/03/20 04:06:56;;;;;;;25.23;12.60;;;1.00;99.90;;;;;;5080176;28;20205;-67
2024/03/20 04:09:43;;;;;;;25.50;12.80;;;1.00;99.90;;;;;;5065871;28;20672;-67
2024/03/20 04:12:29;;;;;;;24.13;12.80;;;1.00;99.90;;;;;;5079529;28;20188;-68
2024/03/20 04:15:16;;;;;;;24.43;12.70;;;1.10;99.90;;;;;;5079458;28;20189;-68
2024/03/20 04:18:03;;;;;;;24.13;12.40;;;1.10;99.90;;;;;;5079369;28;20187;-68
2024/03/20 04:20:50;;;;;;;25.67;12.87;;;1.10;99.90;;;;;;5078422;28;20198;-68
2024/03/20 04:23:36;;;;;;;26.50;12.50;;;1.00;99.90;;;;;;5066164;28;20789;-68
2024/03/20 04:26:23;;;;;;;25.10;12.43;;;0.90;99.90;;;;;;5065414;28;20195;-68
2024/03/20 04:29:10;;;;;;;24.23;12.43;;;1.00;99.90;;;;;;5078507;28;20238;-68
2024/03/20 04:31:56;;;;;;;27.83;13.40;;;1.00;99.90;;;;;;5064908;28;20202;-68
2024/03/20 04:34:43;;;;;;;26.47;12.90;;;1.00;99.90;;;;;;5079543;28;20213;-68
2024/03/20 04:37:29;;;;;;;26.30;13.00;;;1.00;99.90;;;;;;5093063;28;20236;-68
2024/03/20 04:40:16;;;;;;;25.50;12.50;;;1.00;99.90;;;;;;5079080;28;20192;-68
2024/03/20 04:43:02;;;;;;;24.87;12.53;;;1.10;99.90;;;;;;5065050;28;20228;-68
2024/03/20 04:45:49;;;;;;;25.77;13.17;;;1.10;99.90;;;;;;5078918;28;20649;-68
2024/03/20 04:48:35;;;;;;;27.77;13.40;;;1.00;99.90;;;;;;5078811;28;20185;-68
2024/03/20 04:51:22;;;;;;;29.57;13.37;;;1.00;99.90;;;;;;5078190;28;20204;-68
2024/03/20 04:54:08;;;;;;;26.80;13.33;;;1.00;99.90;;;;;;5092854;28;20189;-68
2024/03/20 04:56:54;;;;;;;27.80;13.33;;;1.00;99.90;;;;;;5078757;28;20196;-68
2024/03/20 04:59:40;;;;;;;29.47;14.30;;;1.10;99.90;;;;;;5078573;28;20193;-68
2024/03/20 05:02:27;;;;;;;27.17;14.00;;;1.20;99.90;;;;;;5078996;28;20622;-67
2024/03/20 05:05:13;;;;;;;26.87;13.27;;;1.10;99.90;;;;;;5064557;28;20216;-68
2024/03/20 05:07:59;;;;;;;29.27;13.73;;;1.20;99.90;;;;;;5065773;28;20186;-68
2024/03/20 05:10:46;;;;;;;26.93;13.37;;;1.10;99.90;;;;;;5078383;28;20196;-68
2024/03/20 05:13:32;;;;;;;28.73;14.27;;;1.20;99.90;;;;;;5078808;28;20192;-69
2024/03/20 05:16:19;;;;;;;28.43;13.50;;;1.20;99.90;;;;;;5078319;28;20197;-69
2024/03/20 05:19:06;;;;;;;29.60;14.03;;;1.20;99.90;;;;;;5078673;28;20220;-70
2024/03/20 05:21:52;;;;;;;30.53;14.10;;;1.20;99.90;;;;;;5078006;28;20594;-69
2024/03/20 05:24:40;;;;;;;25.57;13.47;;;1.30;99.90;;;;;;5079202;28;20197;-69
2024/03/20 05:27:26;;;;;;;28.60;13.90;;;1.40;99.90;;;;;;5077964;28;20190;-69
2024/03/20 05:30:13;;;;;;;30.43;14.13;;;1.40;99.90;;;;;;5077255;28;20185;-69
2024/03/20 05:32:59;;;;;;;30.97;15.47;;;1.40;99.90;;;;;;5077822;28;20186;-69
2024/03/20 05:35:46;;;;;;;30.13;14.80;;;1.40;99.90;;;;;;5077611;28;20215;-69
2024/03/20 05:38:32;;;;;;;28.37;14.00;;;1.50;99.90;;;;;;5076954;28;20185;-69
2024/03/20 05:41:18;;;;;;;31.60;14.97;;;1.60;99.90;;;;;;5077656;28;20225;-69
2024/03/20 05:44:08;;;;;;;29.40;14.93;;;1.60;99.90;;;;;;5076169;28;20193;-69
2024/03/20 05:46:54;;;;;;;32.20;15.30;;;1.70;99.90;;;;;;5076994;28;20675;-69
2024/03/20 05:49:43;;;;;;;26.47;14.10;;;1.70;99.90;;;;;;5076478;28;20214;-69
2024/03/20 05:52:29;;;;;;;30.17;15.40;;;1.70;99.90;;;;;;5063684;28;20200;-69
2024/03/20 05:55:16;;;;;;;32.37;15.43;;;1.70;99.90;;;;;;5064262;28;20657;-68
2024/03/20 05:58:02;;;;;;;28.30;14.47;;;1.70;99.90;;;;;;5076506;28;20193;-68
2024/03/20 06:00:49;;;;;;;31.57;14.73;;;1.70;99.90;;;;;;5076856;28;20685;-68
2024/03/20 06:03:35;;;;;;;26.37;14.30;;;1.80;99.90;;;;;;5075983;28;20579;-68
2024/03/20 06:06:21;;;;;;;30.47;15.57;;;1.80;99.90;;;;;;5076082;28;20561;-69
2024/03/20 06:09:10;;;;;;;27.93;14.43;;;1.90;99.90;;;;;;5076791;28;20190;-69
2024/03/20 06:12:04;;;;;;;31.63;14.77;;;2.00;99.90;;;;;;5076704;28;20200;-70
2024/03/20 06:14:52;;;;;;;29.10;15.03;;;2.10;99.90;;;;;;5076748;28;20192;-69
2024/03/20 06:17:39;;;;;;;32.73;15.60;;;2.10;99.90;;;;;;5076031;28;20273;-69
2024/03/20 06:20:26;;;;;;;30.57;15.93;;;2.10;99.90;;;;;;5062635;28;20300;-69
2024/03/20 06:23:12;;;;;;;34.67;17.20;;;2.00;99.90;;;;;;5062606;28;20215;-68
2024/03/20 06:25:59;;;;;;;31.30;16.67;;;2.10;99.90;;;;;;5063370;28;20193;-68
2024/03/20 06:28:46;;;;;;;32.40;16.67;;;2.10;99.90;;;;;;5075791;28;20186;-69
2024/03/20 06:31:32;;;;;;;35.77;17.57;;;2.10;99.90;;;;;;5076463;28;20209;-69
2024/03/20 06:34:18;;;;;;;33.83;17.00;;;2.10;99.90;;;;;;5062889;28;20692;-69
2024/03/20 06:37:10;;;;;;;36.03;17.30;;;2.30;99.90;;;;;;5062249;28;20235;-69
2024/03/20 06:39:56;;;;;;;39.57;18.70;;;2.50;99.90;;;;;;5063539;28;20186;-69
2024/03/20 06:42:43;;;;;;;37.33;17.77;;;2.70;99.90;;;;;;5076717;28;20249;-68
2024/03/20 06:45:35;;;;;;;37.97;18.63;;;2.70;99.90;;;;;;5076831;28;20189;-68
2024/03/20 06:48:26;;;;;;;36.17;18.43;;;2.80;99.90;;;;;;5076723;28;20190;-68
2024/03/20 06:51:15;;;;;;;35.60;18.13;;;2.90;99.90;;;;;;5075996;28;20212;-68
2024/03/20 06:54:16;;;;;;;37.67;18.53;;;2.90;99.90;;;;;;5076678;28;20199;-68
2024/03/20 06:57:03;;;;;;;33.73;16.13;;;2.90;99.90;;;;;;5076175;28;20190;-69
2024/03/20 06:59:50;;;;;;;36.87;16.30;;;3.00;99.90;;;;;;5076631;28;20198;-69
2024/03/20 07:02:37;;;;;;;32.60;15.40;;;3.00;99.90;;;;;;5076551;28;20236;-69
2024/03/20 07:05:23;;;;;;;31.87;14.97;;;3.00;99.90;;;;;;5063183;28;20744;-68
2024/03/20 07:08:10;;;;;;;28.93;14.20;;;3.20;99.90;;;;;;5077143;28;20649;-71
2024/03/20 07:10:56;;;;;;;32.57;16.00;;;3.20;99.90;;;;;;5076092;28;20242;-69
2024/03/20 07:13:43;;;;;;;32.30;15.90;;;3.30;99.90;;;;;;5076560;28;20203;-69
2024/03/20 07:16:29;;;;;;;34.47;16.13;;;3.40;99.90;;;;;;5061343;28;20215;-70
2024/03/20 07:19:16;;;;;;;30.23;16.03;;;3.50;99.90;;;;;;5076471;28;20213;-70
2024/03/20 07:22:02;;;;;;;31.63;16.00;;;3.50;99.90;;;;;;5076911;28;20581;-70
2024/03/20 07:24:49;;;;;;;29.00;14.57;;;3.70;99.90;;;;;;5076919;28;20194;-69
2024/03/20 07:27:35;;;;;;;30.73;14.77;;;3.70;99.90;;;;;;5075805;28;20650;-70
2024/03/20 07:30:22;;;;;;;26.97;14.13;;;3.80;99.90;;;;;;5076275;28;20199;-71
2024/03/20 07:33:09;;;;;;;26.10;14.13;;;3.90;99.90;;;;;;5076232;28;20194;-70
2024/03/20 07:35:55;;;;;;;28.40;15.07;;;4.00;99.90;;;;;;5076109;28;20595;-70
2024/03/20 07:38:42;;;;;;;27.70;15.13;;;4.00;99.90;;;;;;5076598;28;20200;-71
2024/03/20 07:41:28;;;;;;;28.03;15.77;;;4.10;99.90;;;;;;5075476;28;20215;-70
2024/03/20 07:44:15;;;;;;;36.60;16.67;;;4.30;99.90;;;;;;5075529;28;20191;-70
2024/03/20 07:47:03;;;;;;;29.40;16.07;;;4.40;99.90;;;;;;5075132;28;20573;-70
2024/03/20 07:49:49;;;;;;;30.10;16.20;;;4.50;99.90;;;;;;5075406;28;20217;-71
2024/03/20 07:52:35;;;;;;;34.03;16.87;;;4.50;99.90;;;;;;5075015;28;20293;-70
2024/03/20 07:55:22;;;;;;;35.07;17.80;;;4.50;99.90;;;;;;5075739;28;20194;-70
2024/03/20 07:58:09;;;;;;;35.43;17.67;;;4.60;99.90;;;;;;5061526;28;20187;-70
2024/03/20 08:00:57;;;;;;;30.87;16.47;;;4.60;99.90;;;;;;5075634;28;20192;-71
2024/03/20 08:03:43;;;;;;;30.27;16.53;;;4.50;99.90;;;;;;5075148;28;20659;-70
2024/03/20 08:06:30;;;;;;;29.37;15.50;;;4.40;99.90;;;;;;5060983;28;20190;-71
2024/03/20 08:09:16;;;;;;;32.20;16.77;;;4.50;99.90;;;;;;5065394;28;20202;-71
2024/03/20 08:12:02;;;;;;;31.53;16.27;;;4.50;99.90;;;;;;5078316;28;20262;-70
2024/03/20 08:14:51;;;;;;;30.80;16.67;;;4.60;99.90;;;;;;5078395;28;20560;-71
2024/03/20 08:17:38;;;;;;;29.20;16.60;;;4.60;99.90;;;;;;5078935;28;20198;-71
2024/03/20 08:20:24;;;;;;;31.33;16.63;;;4.70;99.90;;;;;;5077997;28;20207;-71
2024/03/20 08:23:11;;;;;;;29.80;16.33;;;4.70;99.90;;;;;;5078056;28;20709;-69
2024/03/20 08:25:57;;;;;;;34.60;17.13;;;4.90;99.90;;;;;;5078914;28;20195;-71
2024/03/20 08:28:43;;;;;;;31.23;17.03;;;5.00;99.90;;;;;;5064731;28;20191;-71
2024/03/20 08:31:30;;;;;;;30.47;16.70;;;5.00;99.90;;;;;;5065350;28;20204;-70
2024/03/20 08:34:18;;;;;;;29.57;16.53;;;5.10;99.90;;;;;;5078428;28;20208;-71
2024/03/20 08:37:04;;;;;;;30.77;16.87;;;5.10;99.90;;;;;;5077709;28;20232;-71
2024/03/20 08:39:54;;;;;;;30.73;16.37;;;5.00;99.90;;;;;;5064173;28;20192;-71
2024/03/20 08:42:42;;;;;;;30.80;17.37;;;5.20;99.90;;;;;;5078361;28;20220;-71
2024/03/20 08:45:29;;;;;;;41.37;18.80;;;5.10;99.90;;;;;;5078469;28;20205;-71
2024/03/20 08:48:15;;;;;;;32.83;17.90;;;5.00;99.90;;;;;;5078152;28;20195;-72
2024/03/20 08:51:03;;;;;;;31.10;17.63;;;5.10;99.90;;;;;;5078107;28;20193;-72
2024/03/20 08:53:50;;;;;;;28.37;15.80;;;5.10;99.90;;;;;;5076913;28;20204;-71
2024/03/20 08:56:38;;;;;;;30.50;17.33;;;5.20;99.90;;;;;;5077585;28;20574;-72
2024/03/20 08:59:24;;;;;;;35.70;17.57;;;5.00;99.90;;;;;;5077714;28;20292;-71
2024/03/20 09:02:12;;;;;;;29.73;16.90;;;5.10;99.90;;;;;;5077897;28;20214;-70
2024/03/20 09:04:58;;;;;;;32.33;18.27;;;5.30;99.90;;;;;;5064543;28;20222;-70
2024/03/20 09:07:47;;;;;;;32.63;17.23;;;5.60;99.90;;;;;;5077298;28;20598;-70
2024/03/20 09:10:34;;;;;;;30.33;17.87;;;5.70;99.90;;;;;;5077111;28;20188;-71
2024/03/20 09:13:22;;;;;;;30.50;16.60;;;5.70;99.90;;;;;;5065620;28;20545;-69
2024/03/20 09:16:08;;;;;;;30.70;16.47;;;5.90;99.90;;;;;;5077006;28;20193;-68
2024/03/20 09:18:55;;;;;;;33.17;17.20;;;6.10;99.90;;;;;;5076057;28;20216;-70
2024/03/20 09:21:43;;;;;;;31.30;16.97;;;6.20;99.90;;;;;;5078044;28;20224;-71
2024/03/20 09:24:29;;;;;;;29.03;15.97;;;6.40;99.90;;;;;;5076969;28;20189;-71
2024/03/20 09:27:16;;;;;;;30.97;16.93;;;6.30;99.90;;;;;;5049991;28;20537;-70
2024/03/20 09:30:03;;;;;;;31.07;16.67;;;6.70;99.90;;;;;;5076663;28;20194;-72
2024/03/20 09:32:50;;;;;;;33.33;17.40;;;6.60;99.90;;;;;;5077936;28;20195;-71
2024/03/20 09:35:37;;;;;;;31.90;17.73;;;6.90;99.90;;;;;;5076673;28;20226;-71
2024/03/20 09:38:23;;;;;;;30.17;17.40;;;7.70;99.90;;;;;;5077121;28;20555;-73
2024/03/20 09:41:17;;;;;;;27.50;16.60;;;8.50;99.90;;;;;;5063507;28;20382;-72
2024/03/20 09:44:05;;;;;;;28.57;17.43;;;9.00;99.90;;;;;;5076908;28;20223;-72
2024/03/20 09:46:52;;;;;;;27.30;16.47;;;9.30;99.90;;;;;;5077124;28;20646;-72
2024/03/20 09:49:38;;;;;;;29.43;17.67;;;9.60;99.90;;;;;;5062503;28;20700;-71
2024/03/20 09:52:25;;;;;;;27.27;16.83;;;9.60;99.90;;;;;;5077046;28;20189;-70
2024/03/20 09:55:16;;;;;;;27.10;15.73;;;9.90;99.90;;;;;;5077205;28;20211;-71
2024/03/20 09:58:03;;;;;;;24.13;14.90;;;10.10;99.90;;;;;;5063635;28;20197;-72
2024/03/20 10:00:50;;;;;;;24.80;15.17;;;10.80;99.90;;;;;;5062906;28;20192;-71
2024/03/20 10:03:36;;;;;;;25.93;15.40;;;11.10;99.90;;;;;;5077295;28;20213;-70
2024/03/20 10:06:25;;;;;;;24.83;15.00;;;11.50;99.90;;;;;;5076644;28;20234;-71
2024/03/20 10:09:16;;;;;;;23.93;15.20;;;11.70;99.90;;;;;;5062748;28;20190;-71
2024/03/20 10:12:02;;;;;;;28.60;15.37;;;12.30;99.90;;;;;;5076817;28;20185;-72
2024/03/20 10:14:49;;;;;;;24.17;14.90;;;13.00;99.90;;;;;;5077148;28;20201;-70
2024/03/20 10:17:37;;;;;;;50.57;31.07;;;13.20;99.90;;;;;;5076563;28;20212;-78
2024/03/20 10:20:24;;;;;;;23.67;14.73;;;13.10;99.90;;;;;;5061758;28;20205;-71
2024/03/20 10:23:15;;;;;;;25.97;14.83;;;13.70;99.90;;;;;;5077477;28;20590;-72
2024/03/20 10:26:02;;;;;;;21.87;14.50;;;13.90;99.90;;;;;;5076086;28;20687;-72
2024/03/20 10:28:50;;;;;;;22.47;14.00;;;14.00;99.90;;;;;;5061913;28;20198;-72
2024/03/20 10:31:37;;;;;;;24.77;16.10;;;14.30;99.90;;;;;;5061161;28;20775;-69
2024/03/20 10:34:25;;;;;;;22.77;13.97;;;14.90;99.90;;;;;;5076019;28;20205;-69
2024/03/20 10:37:12;;;;;;;20.23;13.53;;;15.00;99.90;;;;;;5076320;28;20240;-72
2024/03/20 10:39:59;;;;;;;21.20;13.60;;;15.00;99.90;;;;;;5076269;28;20384;-72
2024/03/20 10:42:48;;;;;;;22.13;13.53;;;15.00;99.90;;;;;;5075644;28;20227;-72
2024/03/20 10:45:36;;;;;;;19.73;13.53;;;15.10;99.90;;;;;;5076174;28;20196;-74
2024/03/20 10:48:24;;;;;;;20.20;13.07;;;14.80;99.90;;;;;;5076750;28;20189;-73
2024/03/20 10:51:14;;;;;;;20.67;13.07;;;15.30;99.90;;;;;;5061679;28;20193;-73
2024/03/20 10:54:01;;;;;;;21.80;13.10;;;15.50;99.90;;;;;;5062864;28;20190;-72
2024/03/20 10:56:49;;;;;;;23.57;13.47;;;15.80;99.60;;;;;;5076670;28;20566;-73
2024/03/20 10:59:37;;;;;;;19.60;13.50;;;16.10;98.40;;;;;;5062089;28;20189;-72
2024/03/20 11:02:24;;;;;;;19.03;13.13;;;16.30;97.30;;;;;;5075666;28;20479;-74
2024/03/20 11:05:37;;;;;;;19.50;13.00;;;16.40;97.60;;;;;;5075141;28;20214;-75
2024/03/20 11:08:23;;;;;;;18.23;12.40;;;17.00;96.30;;;;;;5076251;28;20612;-75
2024/03/20 11:11:10;;;;;;;20.27;13.40;;;17.30;94.20;;;;;;5062154;28;20276;-74
2024/03/20 11:14:03;;;;;;;21.60;12.30;;;17.30;93.80;;;;;;5075266;28;20193;-74
2024/03/20 11:16:52;;;;;;;20.33;12.73;;;17.30;93.80;;;;;;5075908;28;20689;-75
2024/03/20 11:19:39;;;;;;;19.80;12.63;;;17.20;93.30;;;;;;5075029;28;20570;-74
2024/03/20 11:22:25;;;;;;;21.47;12.70;;;17.00;92.90;;;;;;5062560;28;20209;-74
2024/03/20 11:25:13;;;;;;;19.13;12.10;;;16.80;93.20;;;;;;5077089;28;20250;-74
2024/03/20 11:28:01;;;;;;;19.80;12.60;;;17.20;92.90;;;;;;5062061;28;20189;-73
2024/03/20 11:30:47;;;;;;;23.93;13.40;;;17.50;92.20;;;;;;5075692;28;20190;-74
2024/03/20 11:33:34;;;;;;;21.43;13.83;;;17.00;91.30;;;;;;5075784;28;20209;-74
2024/03/20 11:36:21;;;;;;;21.20;13.90;;;17.20;91.80;;;;;;5075396;28;20229;-74
2024/03/20 11:39:08;;;;;;;21.83;13.80;;;17.80;90.80;;;;;;5075716;28;20204;-72
2024/03/20 11:41:55;;;;;;;24.43;14.53;;;18.30;90.00;;;;;;5076888;28;20210;-75
2024/03/20 11:44:42;;;;;;;21.97;14.13;;;18.50;87.90;;;;;;5079403;28;20188;-75
2024/03/20 11:47:28;;;;;;;19.73;13.93;;;18.80;84.40;;;;;;5066152;28;20272;-75
2024/03/20 11:50:15;;;;;;;23.10;14.63;;;19.50;82.60;;;;;;5065864;28;20205;-74
2024/03/20 11:53:01;;;;;;;22.90;15.37;;;19.90;80.70;;;;;;5078618;28;20189;-75
2024/03/20 11:55:49;;;;;;;23.57;14.87;;;20.60;77.80;;;;;;5065416;28;20574;-75
2024/03/20 11:58:36;;;;;;;22.87;15.27;;;20.80;76.00;;;;;;5065922;28;20197;-73
2024/03/20 12:01:23;;;;;;;19.63;13.87;;;20.70;73.00;;;;;;5078677;28;20197;-74
2024/03/20 12:04:10;;;;;;;23.37;14.57;;;20.40;73.60;;;;;;5064883;28;20223;-75
2024/03/20 12:06:57;;;;;;;22.70;15.03;;;20.80;73.20;;;;;;5078506;28;20193;-76
2024/03/20 12:09:44;;;;;;;21.43;14.60;;;20.50;71.20;;;;;;5067155;28;20590;-74
2024/03/20 12:12:30;;;;;;;21.17;14.30;;;21.10;72.30;;;;;;5078219;28;20189;-75
2024/03/20 12:15:21;;;;;;;22.90;14.83;;;21.50;70.90;;;;;;5064415;28;20186;-75
2024/03/20 12:18:08;;;;;;;26.70;15.27;;;21.50;69.20;;;;;;5064997;28;20251;-76
2024/03/20 12:20:55;;;;;;;22.70;15.63;;;21.20;68.00;;;;;;5078940;28;20200;-76
2024/03/20 12:23:41;;;;;;;22.37;15.83;;;20.50;68.30;;;;;;5079086;28;20213;-75
2024/03/20 12:26:29;;;;;;;23.90;15.30;;;19.60;69.00;;;;;;5078785;28;20194;-76
2024/03/20 12:29:15;;;;;;;20.07;14.27;;;19.30;70.90;;;;;;5079246;28;20219;-75
2024/03/20 12:32:02;;;;;;;22.77;14.83;;;19.40;72.20;;;;;;5078687;28;20194;-75
2024/03/20 12:34:52;;;;;;;20.90;14.20;;;19.70;71.60;;;;;;5079046;28;20551;-75
2024/03/20 12:37:38;;;;;;;23.57;14.83;;;20.00;71.00;;;;;;5078478;28;20229;-75
2024/03/20 12:40:25;;;;;;;28.37;15.13;;;19.80;69.60;;;;;;5064431;28;20190;-75
2024/03/20 12:43:13;;;;;;;25.30;14.80;;;19.50;68.30;;;;;;5078129;28;20217;-75
2024/03/20 12:45:59;;;;;;;23.03;14.20;;;18.70;70.90;;;;;;5064475;28;20653;-75
2024/03/20 12:48:46;;;;;;;22.97;15.03;;;19.00;71.80;;;;;;5063812;28;20213;-75
2024/03/20 12:51:32;;;;;;;21.13;13.97;;;19.30;71.70;;;;;;5078701;28;20566;-75
2024/03/20 12:54:18;;;;;;;20.17;13.37;;;19.20;70.50;;;;;;5077419;28;20185;-75
2024/03/20 12:57:05;;;;;;;20.83;13.27;;;19.00;71.10;;;;;;5077667;28;20200;-74
2024/03/20 12:59:52;;;;;;;19.27;13.00;;;19.00;71.50;;;;;;5077999;28;20185;-76
2024/03/20 13:02:39;;;;;;;20.20;13.30;;;19.20;70.50;;;;;;5063844;28;20574;-76
2024/03/20 13:05:26;;;;;;;18.40;12.77;;;19.00;71.40;;;;;;5077324;28;20209;-76
2024/03/20 13:08:14;;;;;;;20.23;13.03;;;19.30;70.20;;;;;;5063354;28;20672;-76
2024/03/20 13:11:04;;;;;;;18.90;12.23;;;19.80;68.70;;;;;;5077544;28;20650;-77
2024/03/20 13:13:52;;;;;;;20.00;11.83;;;20.30;65.90;;;;;;5064635;28;20196;-77
2024/03/20 13:16:38;;;;;;;18.20;12.20;;;20.50;65.70;;;;;;5077088;28;20192;-77
2024/03/20 13:19:26;;;;;;;19.27;11.53;;;20.10;64.80;;;;;;5077039;28;20210;-77
2024/03/20 13:22:19;;;;;;;17.00;12.13;;;20.10;65.10;;;;;;5077562;28;20205;-77
2024/03/20 13:25:10;;;;;;;17.33;11.63;;;19.50;64.80;;;;;;5077064;28;20193;-77
2024/03/20 13:27:56;;;;;;;20.63;12.30;;;19.90;64.60;;;;;;5063634;28;20687;-75
2024/03/20 13:30:46;;;;;;;208.13;127.17;;;19.20;65.20;;;;;;5078158;28;20196;-80
2024/03/20 13:33:33;;;;;;;23.33;13.13;;;19.20;66.50;;;;;;5078375;28;20185;-73
2024/03/20 13:36:19;;;;;;;17.73;10.80;;;19.20;66.70;;;;;;5077062;28;20556;-77
2024/03/20 13:39:18;;;;;;;18.37;11.07;;;19.20;65.40;;;;;;5064493;28;20208;-75
2024/03/20 13:42:23;;;;;;;17.07;10.80;;;19.00;66.40;;;;;;5077200;28;20681;-77
2024/03/20 13:45:16;;;;;;;16.50;11.23;;;19.00;67.80;;;;;;5062112;28;20186;-76
2024/03/20 13:48:02;;;;;;;18.10;10.20;;;18.80;68.30;;;;;;5076997;28;20196;-76
2024/03/20 13:50:49;;;;;;;16.13;11.17;;;18.70;69.00;;;;;;5064029;28;20201;-77
2024/03/20 13:53:36;;;;;;;21.27;11.83;;;18.50;69.30;;;;;;5063851;28;20196;-76
2024/03/20 13:56:23;;;;;;;21.93;11.50;;;17.70;71.20;;;;;;5063159;28;20197;-76
2024/03/20 13:59:10;;;;;;;17.43;11.33;;;17.10;73.20;;;;;;5076646;28;20193;-76
2024/03/20 14:01:57;;;;;;;19.17;11.53;;;16.50;74.00;;;;;;5063027;28;20205;-76
2024/03/20 14:04:43;;;;;;;17.27;11.00;;;16.10;75.80;;;;;;5075336;28;20210;-76
2024/03/20 14:07:30;;;;;;;17.20;10.20;;;15.80;76.90;;;;;;5076791;28;20199;-75
2024/03/20 14:10:19;;;;;;;16.00;9.30;;;15.50;77.80;;;;;;5063321;28;20202;-76
2024/03/20 14:13:07;;;;;;;12.43;8.23;;;15.30;78.70;;;;;;5063225;28;20207;-77
2024/03/20 14:15:54;;;;;;;17.13;10.00;;;15.00;78.80;;;;;;5063228;28;20189;-76